Time;durP1;ratioP1;P1;durP2;ratioP2;P2;SDS_P1;SDS_P2;PMS_P1;PMS_P2;Temp;Humidity;BMP_temperature;BMP_pressure;BME280_temperature;BME280_humidity;BME280_pressure;Samples;Min_cycle;Max_cycle;Signal;HPM_P1;HPM_P2
2021/09/17 00:02:08;;;;;;;2.12;2.02;;;;;;;21.19;73.11;100579.08;;;;-55
2021/09/17 00:05:08;;;;;;;2.10;2.00;;;;;;;21.19;73.06;100579.40;;;;-64
2021/09/17 00:08:08;;;;;;;2.21;2.03;;;;;;;21.19;73.07;100570.27;;;;-61
2021/09/17 00:11:08;;;;;;;2.19;1.99;;;;;;;21.18;73.05;100571.31;;;;-56
2021/09/17 00:14:08;;;;;;;2.10;2.00;;;;;;;21.18;73.11;100567.81;;;;-62
2021/09/17 00:17:08;;;;;;;2.49;2.09;;;;;;;21.18;73.15;100565.20;;;;-55
2021/09/17 00:20:08;;;;;;;2.67;1.96;;;;;;;21.17;73.18;100562.45;;;;-61
2021/09/17 00:23:08;;;;;;;2.83;1.99;;;;;;;21.17;73.11;100563.67;;;;-56
2021/09/17 00:26:08;;;;;;;2.24;2.04;;;;;;;21.17;73.07;100562.94;;;;-57
2021/09/17 00:29:08;;;;;;;2.23;2.03;;;;;;;21.16;73.19;100561.28;;;;-64
2021/09/17 00:32:08;;;;;;;2.11;2.00;;;;;;;21.16;73.17;100558.59;;;;-64
2021/09/17 00:35:08;;;;;;;2.03;1.93;;;;;;;21.15;73.03;100556.98;;;;-56
2021/09/17 00:38:08;;;;;;;2.18;2.01;;;;;;;21.15;73.17;100555.02;;;;-56
2021/09/17 00:41:10;;;;;;;2.03;1.93;;;;;;;21.15;73.10;100554.86;;;;-64
2021/09/17 00:44:08;;;;;;;2.16;1.99;;;;;;;21.15;73.11;100558.05;;;;-64
2021/09/17 00:47:08;;;;;;;2.23;1.91;;;;;;;21.15;73.09;100557.88;;;;-55
2021/09/17 00:50:08;;;;;;;2.10;2.00;;;;;;;21.14;73.15;100558.84;;;;-60
2021/09/17 00:53:08;;;;;;;2.37;2.11;;;;;;;21.13;73.12;100557.80;;;;-60
2021/09/17 00:56:08;;;;;;;2.19;2.00;;;;;;;21.13;73.17;100556.81;;;;-64
2021/09/17 00:59:08;;;;;;;2.03;1.93;;;;;;;21.13;73.12;100556.91;;;;-61
2021/09/17 01:02:08;;;;;;;3.85;2.17;;;;;;;21.13;73.11;100556.58;;;;-64
2021/09/17 01:05:08;;;;;;;1.90;1.80;;;;;;;21.13;73.18;100555.28;;;;-56
2021/09/17 01:08:08;;;;;;;2.45;2.25;;;;;;;21.12;73.15;100556.31;;;;-64
2021/09/17 01:11:08;;;;;;;1.99;1.89;;;;;;;21.11;73.19;100548.83;;;;-56
2021/09/17 01:14:08;;;;;;;1.99;1.89;;;;;;;21.11;73.15;100549.32;;;;-56
2021/09/17 01:17:08;;;;;;;2.15;1.99;;;;;;;21.11;73.13;100549.48;;;;-61
2021/09/17 01:20:08;;;;;;;2.30;2.10;;;;;;;21.11;73.12;100546.39;;;;-56
2021/09/17 01:23:08;;;;;;;2.03;1.93;;;;;;;21.10;73.07;100546.52;;;;-65
2021/09/17 01:26:08;;;;;;;2.25;2.06;;;;;;;21.10;73.08;100544.25;;;;-61
2021/09/17 01:29:08;;;;;;;2.30;2.11;;;;;;;21.09;73.16;100542.05;;;;-55
2021/09/17 01:32:08;;;;;;;2.79;2.16;;;;;;;21.09;73.13;100540.42;;;;-64
2021/09/17 01:35:08;;;;;;;2.22;2.08;;;;;;;21.10;73.15;100538.71;;;;-61
2021/09/17 01:38:08;;;;;;;2.06;1.96;;;;;;;21.09;73.10;100538.39;;;;-61
2021/09/17 01:41:08;;;;;;;2.12;1.92;;;;;;;21.08;73.09;100535.55;;;;-54
2021/09/17 01:44:08;;;;;;;2.11;2.01;;;;;;;21.08;73.13;100531.37;;;;-55
2021/09/17 01:47:08;;;;;;;2.20;2.00;;;;;;;21.08;73.16;100528.59;;;;-64
2021/09/17 01:50:08;;;;;;;2.13;1.88;;;;;;;21.08;73.13;100524.52;;;;-65
2021/09/17 01:53:08;;;;;;;2.05;1.95;;;;;;;21.07;73.10;100523.07;;;;-64
2021/09/17 01:56:08;;;;;;;2.03;1.93;;;;;;;21.08;73.14;100522.73;;;;-54
2021/09/17 01:59:08;;;;;;;2.00;1.90;;;;;;;21.07;73.08;100522.18;;;;-56
2021/09/17 02:02:08;;;;;;;2.01;1.91;;;;;;;21.07;73.05;100519.33;;;;-55
2021/09/17 02:05:08;;;;;;;2.10;2.00;;;;;;;21.06;73.10;100516.38;;;;-56
2021/09/17 02:08:08;;;;;;;2.15;1.99;;;;;;;21.07;73.10;100515.66;;;;-55
2021/09/17 02:11:08;;;;;;;1.94;1.84;;;;;;;21.06;73.08;100517.95;;;;-62
2021/09/17 02:14:08;;;;;;;2.19;1.99;;;;;;;21.06;73.12;100516.30;;;;-64
2021/09/17 02:17:08;;;;;;;2.21;2.02;;;;;;;21.06;73.08;100515.08;;;;-63
2021/09/17 02:20:08;;;;;;;2.29;2.09;;;;;;;21.05;73.13;100515.00;;;;-56
2021/09/17 02:23:08;;;;;;;2.06;1.96;;;;;;;21.05;73.04;100516.55;;;;-55
2021/09/17 02:26:08;;;;;;;2.11;1.91;;;;;;;21.05;73.07;100518.19;;;;-61
2021/09/17 02:29:08;;;;;;;2.07;1.97;;;;;;;21.04;73.03;100516.70;;;;-61
2021/09/17 02:32:09;;;;;;;2.11;1.93;;;;;;;21.04;73.04;100517.76;;;;-65
2021/09/17 02:35:08;;;;;;;2.04;1.91;;;;;;;21.04;73.11;100523.54;;;;-61
2021/09/17 02:38:08;;;;;;;2.18;2.00;;;;;;;21.04;72.99;100516.95;;;;-55
2021/09/17 02:41:08;;;;;;;2.39;2.03;;;;;;;21.03;73.05;100510.77;;;;-57
2021/09/17 02:44:08;;;;;;;2.06;1.90;;;;;;;21.03;73.02;100513.30;;;;-54
2021/09/17 02:47:08;;;;;;;2.15;2.05;;;;;;;21.03;73.07;100511.17;;;;-64
2021/09/17 02:50:08;;;;;;;2.18;1.99;;;;;;;21.03;73.00;100514.35;;;;-54
2021/09/17 02:53:08;;;;;;;2.05;1.95;;;;;;;21.02;73.11;100514.03;;;;-65
2021/09/17 02:56:08;;;;;;;2.14;2.00;;;;;;;21.03;73.04;100510.69;;;;-54
2021/09/17 02:59:08;;;;;;;2.01;1.91;;;;;;;21.02;73.09;100509.20;;;;-65
2021/09/17 03:02:08;;;;;;;2.09;1.99;;;;;;;21.02;73.01;100505.45;;;;-65
2021/09/17 03:05:08;;;;;;;2.11;2.00;;;;;;;21.01;73.02;100501.39;;;;-57
2021/09/17 03:08:08;;;;;;;2.15;2.00;;;;;;;21.01;72.94;100499.35;;;;-61
2021/09/17 03:11:08;;;;;;;1.96;1.84;;;;;;;21.01;72.94;100497.16;;;;-65
2021/09/17 03:14:08;;;;;;;2.18;1.98;;;;;;;21.01;73.00;100500.49;;;;-56
2021/09/17 03:17:08;;;;;;;2.10;2.00;;;;;;;21.01;73.06;100494.47;;;;-60
2021/09/17 03:20:08;;;;;;;2.02;1.92;;;;;;;21.01;72.99;100493.66;;;;-54
2021/09/17 03:23:08;;;;;;;2.61;1.91;;;;;;;21.00;73.02;100488.94;;;;-55
2021/09/17 03:26:08;;;;;;;1.97;1.87;;;;;;;21.01;73.06;100490.16;;;;-56
2021/09/17 03:29:08;;;;;;;2.07;1.92;;;;;;;20.99;72.94;100486.23;;;;-64
2021/09/17 03:32:08;;;;;;;2.01;1.91;;;;;;;20.99;72.96;100484.92;;;;-64
2021/09/17 03:35:08;;;;;;;2.20;2.03;;;;;;;21.00;73.07;100485.11;;;;-56
2021/09/17 03:38:08;;;;;;;2.10;2.00;;;;;;;20.99;73.08;100487.22;;;;-65
2021/09/17 03:41:08;;;;;;;2.06;1.91;;;;;;;20.98;72.98;100484.13;;;;-64
2021/09/17 03:44:08;;;;;;;2.99;2.01;;;;;;;20.99;72.97;100490.47;;;;-60
2021/09/17 03:47:08;;;;;;;2.21;2.03;;;;;;;20.98;73.00;100489.08;;;;-64
2021/09/17 03:50:08;;;;;;;2.06;1.96;;;;;;;20.98;72.98;100490.89;;;;-61
2021/09/17 03:53:08;;;;;;;2.24;1.99;;;;;;;20.98;73.04;100489.91;;;;-55
2021/09/17 03:56:08;;;;;;;2.13;2.00;;;;;;;20.97;73.03;100489.65;;;;-55
2021/09/17 03:59:08;;;;;;;2.07;1.97;;;;;;;20.97;73.02;100489.00;;;;-62
2021/09/17 04:02:08;;;;;;;2.09;1.98;;;;;;;20.97;73.01;100488.11;;;;-64
2021/09/17 04:05:08;;;;;;;2.08;1.98;;;;;;;20.97;73.05;100486.16;;;;-62
2021/09/17 04:08:08;;;;;;;2.17;2.00;;;;;;;20.96;73.00;100484.21;;;;-56
2021/09/17 04:11:08;;;;;;;2.00;1.90;;;;;;;20.97;73.12;100487.63;;;;-60
2021/09/17 04:14:08;;;;;;;2.07;1.97;;;;;;;20.96;73.05;100484.45;;;;-63
2021/09/17 04:17:08;;;;;;;2.08;1.98;;;;;;;20.96;73.04;100482.34;;;;-61
2021/09/17 04:20:08;;;;;;;2.00;1.90;;;;;;;20.95;73.06;100482.00;;;;-55
2021/09/17 04:23:08;;;;;;;1.94;1.84;;;;;;;20.96;73.09;100485.76;;;;-54
2021/09/17 04:26:08;;;;;;;2.21;2.01;;;;;;;20.94;72.96;100482.49;;;;-64
2021/09/17 04:29:08;;;;;;;2.10;2.00;;;;;;;20.95;73.03;100483.29;;;;-64
2021/09/17 04:32:08;;;;;;;2.00;1.90;;;;;;;20.95;73.02;100481.10;;;;-55
2021/09/17 04:35:08;;;;;;;2.00;1.90;;;;;;;20.95;72.99;100484.20;;;;-64
2021/09/17 04:38:08;;;;;;;2.08;1.93;;;;;;;20.94;73.04;100482.34;;;;-62
2021/09/17 04:41:08;;;;;;;1.90;1.80;;;;;;;20.94;73.06;100485.27;;;;-54
2021/09/17 04:44:08;;;;;;;2.23;2.13;;;;;;;20.94;73.03;100487.05;;;;-61
2021/09/17 04:47:08;;;;;;;2.19;2.01;;;;;;;20.93;73.04;100485.73;;;;-62
2021/09/17 04:50:08;;;;;;;2.12;2.02;;;;;;;20.94;73.01;100485.52;;;;-55
2021/09/17 04:53:08;;;;;;;2.17;2.01;;;;;;;20.94;73.06;100483.20;;;;-55
2021/09/17 04:56:08;;;;;;;2.21;2.01;;;;;;;20.93;73.10;100485.33;;;;-60
2021/09/17 04:59:08;;;;;;;2.02;1.92;;;;;;;20.92;73.12;100483.47;;;;-54
2021/09/17 05:02:08;;;;;;;2.29;2.09;;;;;;;20.93;73.07;100491.36;;;;-62
2021/09/17 05:05:08;;;;;;;2.01;1.91;;;;;;;20.92;73.02;100490.48;;;;-54
2021/09/17 05:08:08;;;;;;;2.03;1.91;;;;;;;20.92;73.08;100493.73;;;;-64
2021/09/17 05:11:08;;;;;;;1.93;1.83;;;;;;;20.92;73.12;100491.21;;;;-54
2021/09/17 05:14:08;;;;;;;1.99;1.89;;;;;;;20.92;73.13;100499.12;;;;-55
2021/09/17 05:17:08;;;;;;;2.06;1.96;;;;;;;20.92;73.13;100499.12;;;;-54
2021/09/17 05:20:08;;;;;;;2.05;1.95;;;;;;;20.92;73.17;100503.52;;;;-54
2021/09/17 05:23:08;;;;;;;2.21;2.01;;;;;;;20.91;73.21;100498.28;;;;-57
2021/09/17 05:26:08;;;;;;;2.07;1.97;;;;;;;20.91;73.10;100499.83;;;;-61
2021/09/17 05:29:08;;;;;;;2.13;1.99;;;;;;;20.91;73.18;100505.13;;;;-61
2021/09/17 05:32:08;;;;;;;2.04;1.91;;;;;;;20.91;73.15;100506.11;;;;-55
2021/09/17 05:35:08;;;;;;;2.06;1.96;;;;;;;20.91;73.11;100507.98;;;;-60
2021/09/17 05:38:08;;;;;;;2.07;1.86;;;;;;;20.91;73.13;100505.78;;;;-53
2021/09/17 05:41:08;;;;;;;2.00;1.90;;;;;;;20.91;73.15;100505.54;;;;-64
2021/09/17 05:44:08;;;;;;;2.03;1.93;;;;;;;20.90;73.20;100511.25;;;;-55
2021/09/17 05:47:08;;;;;;;2.01;1.90;;;;;;;20.90;73.15;100515.56;;;;-55
2021/09/17 05:50:08;;;;;;;1.95;1.85;;;;;;;20.90;73.18;100509.05;;;;-56
2021/09/17 05:53:08;;;;;;;2.03;1.89;;;;;;;20.89;73.23;100505.84;;;;-55
2021/09/17 05:56:08;;;;;;;1.98;1.88;;;;;;;20.89;73.11;100504.06;;;;-61
2021/09/17 05:59:08;;;;;;;1.97;1.87;;;;;;;20.90;73.19;100510.03;;;;-63
2021/09/17 06:02:08;;;;;;;2.05;1.95;;;;;;;20.89;73.21;100513.59;;;;-55
2021/09/17 06:05:08;;;;;;;1.95;1.85;;;;;;;20.88;73.11;100510.27;;;;-64
2021/09/17 06:08:08;;;;;;;1.90;1.80;;;;;;;20.89;73.17;100512.94;;;;-65
2021/09/17 06:11:08;;;;;;;2.06;1.96;;;;;;;20.89;73.24;100514.41;;;;-60
2021/09/17 06:14:08;;;;;;;1.86;1.76;;;;;;;20.88;73.20;100513.12;;;;-61
2021/09/17 06:17:08;;;;;;;1.97;1.87;;;;;;;20.88;73.14;100513.93;;;;-56
2021/09/17 06:20:08;;;;;;;1.91;1.81;;;;;;;20.88;73.16;100512.71;;;;-65
2021/09/17 06:23:08;;;;;;;1.90;1.80;;;;;;;20.88;73.19;100515.31;;;;-54
2021/09/17 06:26:08;;;;;;;1.99;1.89;;;;;;;20.88;73.18;100515.16;;;;-54
2021/09/17 06:29:08;;;;;;;1.91;1.81;;;;;;;20.88;73.15;100515.16;;;;-56
2021/09/17 06:32:08;;;;;;;1.90;1.80;;;;;;;20.88;73.23;100514.59;;;;-57
2021/09/17 06:35:08;;;;;;;2.10;2.00;;;;;;;20.88;73.16;100513.77;;;;-64
2021/09/17 06:38:08;;;;;;;2.11;1.91;;;;;;;20.87;73.23;100512.03;;;;-55
2021/09/17 06:41:08;;;;;;;1.94;1.84;;;;;;;20.87;73.14;100512.53;;;;-56
2021/09/17 06:44:08;;;;;;;1.91;1.81;;;;;;;20.87;73.25;100514.57;;;;-55
2021/09/17 06:47:08;;;;;;;2.00;1.90;;;;;;;20.87;73.14;100520.27;;;;-54
2021/09/17 06:50:08;;;;;;;2.01;1.91;;;;;;;20.86;73.24;100522.00;;;;-55
2021/09/17 06:53:08;;;;;;;2.00;1.90;;;;;;;20.86;73.19;100521.91;;;;-55
2021/09/17 06:56:08;;;;;;;1.90;1.80;;;;;;;20.86;73.12;100520.94;;;;-56
2021/09/17 06:59:08;;;;;;;2.00;1.90;;;;;;;20.86;73.21;100519.14;;;;-61
2021/09/17 07:02:08;;;;;;;2.25;1.99;;;;;;;20.85;73.15;100522.13;;;;-55
2021/09/17 07:05:08;;;;;;;1.95;1.85;;;;;;;20.85;73.15;100521.41;;;;-56
2021/09/17 07:08:08;;;;;;;2.09;1.90;;;;;;;20.86;73.17;100524.03;;;;-54
2021/09/17 07:11:08;;;;;;;2.00;1.90;;;;;;;20.85;73.18;100517.58;;;;-60
2021/09/17 07:14:08;;;;;;;1.95;1.85;;;;;;;20.86;73.16;100515.56;;;;-55
2021/09/17 07:17:08;;;;;;;1.98;1.88;;;;;;;20.85;73.13;100513.02;;;;-55
2021/09/17 07:20:08;;;;;;;2.00;1.90;;;;;;;20.84;73.18;100512.20;;;;-54
2021/09/17 07:23:09;;;;;;;2.05;1.89;;;;;;;20.85;73.19;100515.14;;;;-56
2021/09/17 07:26:08;;;;;;;2.17;2.07;;;;;;;20.84;73.15;100506.84;;;;-56
2021/09/17 07:29:08;;;;;;;2.03;1.93;;;;;;;20.84;73.18;100507.73;;;;-56
2021/09/17 07:32:08;;;;;;;2.09;1.90;;;;;;;20.84;73.15;100510.91;;;;-56
2021/09/17 07:35:08;;;;;;;2.27;2.07;;;;;;;20.84;73.20;100514.25;;;;-55
2021/09/17 07:38:08;;;;;;;2.19;2.05;;;;;;;20.84;73.20;100517.10;;;;-61
2021/09/17 07:41:08;;;;;;;2.27;2.07;;;;;;;20.84;73.10;100515.88;;;;-56
2021/09/17 07:44:08;;;;;;;2.33;2.05;;;;;;;20.83;73.13;100516.19;;;;-54
2021/09/17 07:47:08;;;;;;;2.26;2.09;;;;;;;20.83;73.12;100513.01;;;;-56
2021/09/17 07:50:08;;;;;;;2.29;2.09;;;;;;;20.83;73.08;100517.91;;;;-64
2021/09/17 07:53:09;;;;;;;2.19;2.05;;;;;;;20.83;73.17;100517.91;;;;-64
2021/09/17 07:56:08;;;;;;;2.01;1.91;;;;;;;20.83;73.11;100516.10;;;;-61
2021/09/17 07:59:08;;;;;;;2.25;2.01;;;;;;;20.83;73.16;100518.16;;;;-55
2021/09/17 08:02:08;;;;;;;2.40;2.20;;;;;;;20.83;73.19;100527.11;;;;-64
2021/09/17 08:05:09;;;;;;;2.23;2.03;;;;;;;20.82;73.13;100523.77;;;;-64
2021/09/17 08:08:08;;;;;;;2.11;2.01;;;;;;;20.82;73.20;100526.05;;;;-64
2021/09/17 08:11:08;;;;;;;2.27;2.09;;;;;;;20.82;73.15;100525.56;;;;-64
2021/09/17 08:14:08;;;;;;;2.37;2.17;;;;;;;20.83;73.08;100530.20;;;;-55
2021/09/17 08:17:08;;;;;;;2.10;2.00;;;;;;;20.82;73.18;100527.68;;;;-60
2021/09/17 08:20:08;;;;;;;6.31;5.12;;;;;;;20.79;71.89;100526.84;;;;-57
2021/09/17 08:23:08;;;;;;;5.08;3.62;;;;;;;20.79;72.57;100536.22;;;;-56
2021/09/17 08:26:08;;;;;;;4.17;3.15;;;;;;;20.80;72.86;100535.98;;;;-57
2021/09/17 08:29:08;;;;;;;4.53;3.38;;;;;;;20.81;72.90;100535.32;;;;-60
2021/09/17 08:32:08;;;;;;;4.97;3.41;;;;;;;20.82;72.63;100538.11;;;;-52
2021/09/17 08:35:08;;;;;;;4.45;3.36;;;;;;;20.82;72.83;100537.55;;;;-52
2021/09/17 08:38:08;;;;;;;4.76;3.21;;;;;;;20.82;72.79;100535.98;;;;-59
2021/09/17 08:41:10;;;;;;;3.65;3.07;;;;;;;20.83;72.84;100535.01;;;;-59
2021/09/17 08:44:08;;;;;;;3.48;3.18;;;;;;;20.83;72.76;100534.84;;;;-51
2021/09/17 08:47:08;;;;;;;3.73;3.10;;;;;;;20.83;72.90;100530.86;;;;-48
2021/09/17 08:50:08;;;;;;;3.45;3.14;;;;;;;20.84;72.98;100530.70;;;;-59
2021/09/17 08:53:08;;;;;;;3.88;3.01;;;;;;;20.85;72.94;100530.93;;;;-58
2021/09/17 08:56:09;;;;;;;6.39;3.22;;;;;;;20.87;73.06;100531.34;;;;-58
2021/09/17 08:59:08;;;;;;;3.53;2.93;;;;;;;20.88;73.02;100530.71;;;;-54
2021/09/17 09:02:08;;;;;;;3.31;3.01;;;;;;;20.89;73.00;100526.95;;;;-54
2021/09/17 09:05:08;;;;;;;3.67;3.00;;;;;;;20.91;73.08;100527.77;;;;-53
2021/09/17 09:08:08;;;;;;;3.84;3.07;;;;;;;20.92;73.13;100523.63;;;;-53
2021/09/17 09:11:08;;;;;;;3.79;3.11;;;;;;;20.94;73.13;100524.29;;;;-57
2021/09/17 09:14:08;;;;;;;4.66;3.23;;;;;;;20.95;73.16;100524.92;;;;-61
2021/09/17 09:17:08;;;;;;;4.41;3.02;;;;;;;20.96;73.00;100523.15;;;;-50
2021/09/17 09:20:08;;;;;;;6.69;3.23;;;;;;;20.98;73.17;100522.50;;;;-53
2021/09/17 09:23:08;;;;;;;7.63;3.20;;;;;;;20.99;73.09;100520.22;;;;-58
2021/09/17 09:26:08;;;;;;;4.76;3.08;;;;;;;21.00;73.03;100520.22;;;;-59
2021/09/17 09:29:08;;;;;;;3.94;2.89;;;;;;;21.01;73.01;100519.56;;;;-53
2021/09/17 09:32:12;;;;;;;8.45;3.16;;;;;;;21.02;73.07;100514.91;;;;-59
2021/09/17 09:35:09;;;;;;;4.59;3.12;;;;;;;21.02;73.09;100511.80;;;;-62
2021/09/17 09:38:08;;;;;;;6.17;3.35;;;;;;;21.04;73.18;100510.75;;;;-51
2021/09/17 09:41:08;;;;;;;3.44;3.13;;;;;;;21.04;73.13;100507.52;;;;-54
2021/09/17 09:44:08;;;;;;;6.29;3.17;;;;;;;21.05;73.14;100501.16;;;;-57
2021/09/17 09:47:08;;;;;;;4.29;2.97;;;;;;;21.05;73.03;100497.07;;;;-59
2021/09/17 09:50:08;;;;;;;4.99;3.09;;;;;;;21.07;73.02;100499.20;;;;-56
2021/09/17 09:53:08;;;;;;;4.03;3.15;;;;;;;21.07;73.05;100497.41;;;;-66
2021/09/17 09:56:08;;;;;;;7.73;3.22;;;;;;;21.07;73.01;100491.94;;;;-62
2021/09/17 09:59:08;;;;;;;4.69;3.04;;;;;;;21.08;72.71;100489.98;;;;-58
2021/09/17 10:02:08;;;;;;;7.81;3.51;;;;;;;21.08;72.92;100488.50;;;;-63
2021/09/17 10:05:08;;;;;;;6.55;3.37;;;;;;;21.08;72.85;100483.05;;;;-59
2021/09/17 10:08:08;;;;;;;3.13;2.83;;;;;;;21.08;72.94;100480.11;;;;-60
2021/09/17 10:11:08;;;;;;;5.05;3.19;;;;;;;21.08;72.87;100475.72;;;;-65
2021/09/17 10:14:08;;;;;;;6.44;2.97;;;;;;;21.07;72.85;100471.41;;;;-63
2021/09/17 10:17:08;;;;;;;5.31;2.81;;;;;;;21.06;72.89;100472.20;;;;-55
2021/09/17 10:20:08;;;;;;;4.59;3.02;;;;;;;21.08;72.78;100473.52;;;;-51
2021/09/17 10:23:08;;;;;;;4.17;2.92;;;;;;;21.08;72.85;100470.99;;;;-66
2021/09/17 10:26:08;;;;;;;4.47;2.89;;;;;;;21.09;72.83;100468.89;;;;-54
2021/09/17 10:29:08;;;;;;;4.11;2.92;;;;;;;21.10;72.89;100467.00;;;;-57
2021/09/17 10:32:08;;;;;;;3.81;2.99;;;;;;;21.11;72.85;100464.58;;;;-54
2021/09/17 10:35:12;;;;;;;5.54;2.78;;;;;;;21.12;72.84;100466.99;;;;-65
2021/09/17 10:38:10;;;;;;;10.64;2.95;;;;;;;21.14;72.89;100468.63;;;;-54
2021/09/17 10:41:08;;;;;;;20.16;3.31;;;;;;;21.16;72.94;100465.94;;;;-62
2021/09/17 10:44:08;;;;;;;7.44;3.09;;;;;;;21.17;72.89;100463.27;;;;-59
2021/09/17 10:47:08;;;;;;;10.49;3.11;;;;;;;21.17;72.97;100460.91;;;;-55
2021/09/17 10:50:08;;;;;;;7.17;3.17;;;;;;;21.19;72.59;100458.95;;;;-52
2021/09/17 10:53:08;;;;;;;4.34;2.98;;;;;;;21.20;72.93;100456.48;;;;-52
2021/09/17 10:56:11;;;;;;;8.68;3.09;;;;;;;21.20;72.82;100453.63;;;;-58
2021/09/17 10:59:08;;;;;;;5.73;2.99;;;;;;;21.22;72.78;100451.84;;;;-63
2021/09/17 11:02:09;;;;;;;5.44;2.99;;;;;;;21.22;72.93;100447.03;;;;-48
2021/09/17 11:05:08;;;;;;;8.31;3.10;;;;;;;21.23;72.91;100449.46;;;;-51
2021/09/17 11:08:08;;;;;;;5.02;2.92;;;;;;;21.23;72.95;100445.73;;;;-50
2021/09/17 11:11:08;;;;;;;5.52;2.75;;;;;;;21.24;72.62;100443.44;;;;-53
2021/09/17 11:14:08;;;;;;;8.11;3.02;;;;;;;21.23;72.95;100441.07;;;;-51
2021/09/17 11:17:08;;;;;;;6.75;2.95;;;;;;;21.23;72.86;100440.00;;;;-51
2021/09/17 11:20:08;;;;;;;5.79;2.87;;;;;;;21.23;72.78;100442.72;;;;-53
2021/09/17 11:23:08;;;;;;;8.13;3.26;;;;;;;21.22;72.76;100437.91;;;;-51
2021/09/17 11:26:08;;;;;;;3.87;2.99;;;;;;;21.21;72.81;100438.41;;;;-52
2021/09/17 11:29:08;;;;;;;6.05;2.77;;;;;;;21.21;72.68;100434.25;;;;-53
2021/09/17 11:32:08;;;;;;;4.55;2.94;;;;;;;21.20;72.63;100432.59;;;;-53
2021/09/17 11:35:08;;;;;;;4.11;2.80;;;;;;;21.20;72.62;100431.87;;;;-53
2021/09/17 11:38:08;;;;;;;5.38;2.83;;;;;;;21.20;72.63;100427.97;;;;-53
2021/09/17 11:41:08;;;;;;;5.53;2.83;;;;;;;21.20;72.57;100426.48;;;;-52
2021/09/17 11:44:08;;;;;;;3.54;2.79;;;;;;;21.19;72.60;100421.53;;;;-53
2021/09/17 11:47:08;;;;;;;4.93;2.73;;;;;;;21.19;72.66;100421.04;;;;-53
2021/09/17 11:50:08;;;;;;;4.15;2.75;;;;;;;21.19;72.58;100417.88;;;;-51
2021/09/17 11:53:08;;;;;;;3.47;2.70;;;;;;;21.18;72.53;100411.08;;;;-52
2021/09/17 11:56:08;;;;;;;4.89;2.74;;;;;;;21.18;72.52;100409.13;;;;-51
2021/09/17 11:59:08;;;;;;;3.23;2.69;;;;;;;21.18;72.51;100408.31;;;;-54
2021/09/17 12:02:08;;;;;;;3.23;2.67;;;;;;;21.18;72.53;100402.86;;;;-59
2021/09/17 12:05:08;;;;;;;3.45;2.75;;;;;;;21.18;72.52;100404.98;;;;-51
2021/09/17 12:08:08;;;;;;;4.59;2.67;;;;;;;21.17;72.51;100405.16;;;;-53
2021/09/17 12:11:08;;;;;;;3.05;2.67;;;;;;;21.18;72.45;100404.56;;;;-51
2021/09/17 12:14:08;;;;;;;3.32;2.60;;;;;;;21.18;72.57;100401.62;;;;-54
2021/09/17 12:17:08;;;;;;;3.16;2.57;;;;;;;21.18;72.44;100397.32;;;;-59
2021/09/17 12:20:08;;;;;;;3.19;2.79;;;;;;;21.17;72.54;100396.60;;;;-53
2021/09/17 12:23:08;;;;;;;3.14;2.67;;;;;;;21.17;72.50;100392.78;;;;-59
2021/09/17 12:26:08;;;;;;;2.73;2.48;;;;;;;21.16;72.46;100392.02;;;;-52
2021/09/17 12:29:08;;;;;;;3.16;2.68;;;;;;;21.17;72.41;100394.72;;;;-52
2021/09/17 12:32:08;;;;;;;2.87;2.59;;;;;;;21.17;72.48;100396.44;;;;-53
2021/09/17 12:35:08;;;;;;;2.83;2.58;;;;;;;21.17;72.47;100394.89;;;;-51
2021/09/17 12:38:08;;;;;;;3.23;2.42;;;;;;;21.16;72.47;100393.32;;;;-54
2021/09/17 12:41:08;;;;;;;4.14;2.58;;;;;;;21.16;72.47;100393.24;;;;-53
2021/09/17 12:44:08;;;;;;;3.25;2.72;;;;;;;21.16;72.43;100387.78;;;;-51
2021/09/17 12:47:08;;;;;;;2.82;2.62;;;;;;;21.16;72.43;100386.08;;;;-51
2021/09/17 12:50:08;;;;;;;4.62;2.55;;;;;;;21.16;72.40;100382.33;;;;-53
2021/09/17 12:53:08;;;;;;;11.33;9.67;;;;;;;21.15;72.40;100378.03;;;;-51
2021/09/17 12:56:08;;;;;;;2.69;2.46;;;;;;;21.16;72.45;100374.34;;;;-51
2021/09/17 12:59:08;;;;;;;3.00;2.54;;;;;;;21.15;72.47;100379.65;;;;-53
2021/09/17 13:02:08;;;;;;;3.13;2.65;;;;;;;21.15;72.41;100376.06;;;;-60
2021/09/17 13:05:09;;;;;;;3.59;2.48;;;;;;;21.15;72.45;100370.69;;;;-54
2021/09/17 13:08:08;;;;;;;2.88;2.57;;;;;;;21.14;72.42;100369.86;;;;-53
2021/09/17 13:11:08;;;;;;;2.68;2.33;;;;;;;21.14;72.41;100366.03;;;;-53
2021/09/17 13:14:08;;;;;;;2.63;2.41;;;;;;;21.14;72.36;100365.54;;;;-51
2021/09/17 13:17:08;;;;;;;3.19;2.51;;;;;;;21.14;72.36;100366.36;;;;-59
2021/09/17 13:20:08;;;;;;;2.59;2.39;;;;;;;21.14;72.49;100360.00;;;;-59
2021/09/17 13:23:08;;;;;;;2.63;2.43;;;;;;;21.14;72.40;100359.84;;;;-53
2021/09/17 13:26:08;;;;;;;3.09;2.47;;;;;;;21.14;72.45;100355.44;;;;-59
2021/09/17 13:29:08;;;;;;;3.23;2.27;;;;;;;21.13;72.44;100352.52;;;;-51
2021/09/17 13:32:08;;;;;;;5.50;2.41;;;;;;;21.15;72.56;100354.23;;;;-53
2021/09/17 13:35:08;;;;;;;3.19;2.47;;;;;;;21.14;72.48;100347.69;;;;-53
2021/09/17 13:43:08;;;;;;;3.36;2.21;;;;;;;21.17;72.70;100341.02;;;;-49
2021/09/17 13:46:08;;;;;;;3.36;2.39;;;;;;;21.18;72.57;100340.83;;;;-58
2021/09/17 13:49:08;;;;;;;5.39;2.58;;;;;;;21.18;72.66;100338.64;;;;-58
2021/09/17 13:52:08;;;;;;;3.21;2.50;;;;;;;21.18;72.61;100334.08;;;;-58
2021/09/17 13:55:08;;;;;;;3.21;2.49;;;;;;;21.18;72.59;100340.10;;;;-66
2021/09/17 13:58:08;;;;;;;2.85;2.25;;;;;;;21.18;72.57;100336.60;;;;-65
2021/09/17 14:01:08;;;;;;;2.69;2.47;;;;;;;21.17;72.53;100337.43;;;;-66
2021/09/17 14:04:08;;;;;;;3.63;2.25;;;;;;;21.18;72.62;100332.52;;;;-54
2021/09/17 14:07:08;;;;;;;3.65;2.35;;;;;;;21.19;72.51;100335.95;;;;-61
2021/09/17 14:10:08;;;;;;;3.61;2.39;;;;;;;21.20;72.51;100333.42;;;;-60
2021/09/17 14:13:08;;;;;;;3.95;2.39;;;;;;;21.20;72.52;100334.31;;;;-50
2021/09/17 14:16:08;;;;;;;6.14;2.56;;;;;;;21.20;72.42;100335.20;;;;-59
2021/09/17 14:19:08;;;;;;;3.47;2.43;;;;;;;21.20;72.30;100333.98;;;;-54
2021/09/17 14:22:08;;;;;;;4.28;2.38;;;;;;;21.22;72.21;100331.71;;;;-56
2021/09/17 14:25:08;;;;;;;3.63;2.53;;;;;;;21.22;72.09;100330.40;;;;-57
2021/09/17 14:28:08;;;;;;;3.63;2.39;;;;;;;21.23;72.03;100329.16;;;;-58
2021/09/17 14:31:08;;;;;;;5.75;2.58;;;;;;;21.23;71.76;100330.80;;;;-57
2021/09/17 14:34:08;;;;;;;3.42;2.46;;;;;;;21.23;71.65;100328.59;;;;-58
2021/09/17 14:37:08;;;;;;;3.78;2.59;;;;;;;21.23;71.60;100328.78;;;;-62
2021/09/17 14:40:08;;;;;;;4.47;2.45;;;;;;;21.24;71.47;100328.27;;;;-57
2021/09/17 14:43:08;;;;;;;4.18;2.47;;;;;;;21.24;71.32;100328.44;;;;-59
2021/09/17 14:46:08;;;;;;;2.89;2.49;;;;;;;21.24;71.46;100328.92;;;;-55
2021/09/17 14:49:08;;;;;;;3.27;2.35;;;;;;;21.25;71.29;100330.38;;;;-52
2021/09/17 14:52:08;;;;;;;3.75;2.40;;;;;;;21.25;71.35;100329.59;;;;-50
2021/09/17 14:55:08;;;;;;;3.51;2.53;;;;;;;21.25;71.11;100326.73;;;;-63
2021/09/17 14:58:09;;;;;;;3.62;2.45;;;;;;;21.26;71.31;100326.15;;;;-59
2021/09/17 15:01:08;;;;;;;3.97;2.43;;;;;;;21.26;70.93;100325.66;;;;-56
2021/09/17 15:04:08;;;;;;;2.92;2.62;;;;;;;21.26;71.01;100324.53;;;;-59
2021/09/17 15:07:08;;;;;;;2.89;2.51;;;;;;;21.26;70.88;100321.83;;;;-63
2021/09/17 15:10:08;;;;;;;4.64;2.47;;;;;;;21.27;71.00;100321.48;;;;-64
2021/09/17 15:13:08;;;;;;;3.05;2.53;;;;;;;21.26;70.87;100319.05;;;;-63
2021/09/17 15:16:08;;;;;;;3.66;2.35;;;;;;;21.27;70.81;100320.67;;;;-55
2021/09/17 15:19:08;;;;;;;2.72;2.39;;;;;;;21.27;70.85;100313.50;;;;-56
2021/09/17 15:22:08;;;;;;;3.79;2.40;;;;;;;21.28;70.85;100316.70;;;;-58
2021/09/17 15:25:08;;;;;;;2.90;2.45;;;;;;;21.27;71.03;100315.80;;;;-59
2021/09/17 15:28:08;;;;;;;3.92;2.51;;;;;;;21.27;70.39;100320.30;;;;-60
2021/09/17 15:31:08;;;;;;;6.64;2.79;;;;;;;21.27;70.54;100316.22;;;;-59
2021/09/17 15:34:08;;;;;;;2.87;2.52;;;;;;;21.27;70.48;100309.28;;;;-65
2021/09/17 15:37:08;;;;;;;4.45;2.78;;;;;;;21.26;70.45;100306.52;;;;-58
2021/09/17 15:40:08;;;;;;;3.87;2.34;;;;;;;21.25;70.57;100308.15;;;;-66
2021/09/17 15:43:08;;;;;;;2.61;2.41;;;;;;;21.25;70.59;100311.25;;;;-59
2021/09/17 15:46:08;;;;;;;4.15;2.54;;;;;;;21.25;70.73;100304.81;;;;-59
2021/09/17 15:49:08;;;;;;;3.69;2.30;;;;;;;21.25;70.72;100299.16;;;;-58
2021/09/17 15:52:08;;;;;;;3.48;2.34;;;;;;;21.25;70.78;100298.84;;;;-65
2021/09/17 15:55:08;;;;;;;2.81;2.58;;;;;;;21.24;70.89;100297.87;;;;-58
2021/09/17 15:58:08;;;;;;;3.41;2.39;;;;;;;21.25;70.86;100300.23;;;;-65
2021/09/17 16:01:08;;;;;;;3.31;2.53;;;;;;;21.24;70.89;100301.45;;;;-64
2021/09/17 16:04:08;;;;;;;3.11;2.30;;;;;;;21.24;71.03;100295.03;;;;-67
2021/09/17 16:07:08;;;;;;;2.65;2.37;;;;;;;21.23;71.00;100294.22;;;;-66
2021/09/17 16:10:08;;;;;;;2.50;2.30;;;;;;;21.23;71.07;100293.47;;;;-60
2021/09/17 16:13:08;;;;;;;2.74;2.48;;;;;;;21.23;71.04;100292.27;;;;-58
2021/09/17 16:16:08;;;;;;;2.47;2.27;;;;;;;21.23;71.09;100295.19;;;;-59
2021/09/17 16:19:08;;;;;;;2.62;2.35;;;;;;;21.22;71.11;100295.59;;;;-66
2021/09/17 16:22:08;;;;;;;2.92;2.49;;;;;;;21.22;71.21;100295.76;;;;-59
2021/09/17 16:25:08;;;;;;;2.61;2.15;;;;;;;21.21;71.25;100296.59;;;;-64
2021/09/17 16:28:08;;;;;;;3.18;2.29;;;;;;;21.22;71.21;100300.91;;;;-59
2021/09/17 16:31:08;;;;;;;2.54;2.34;;;;;;;21.22;71.22;100304.66;;;;-59
2021/09/17 16:34:08;;;;;;;2.70;2.50;;;;;;;21.20;71.30;100302.28;;;;-59
2021/09/17 16:37:08;;;;;;;2.61;2.40;;;;;;;21.21;71.32;100304.09;;;;-58
2021/09/17 16:40:08;;;;;;;2.50;2.30;;;;;;;21.19;71.33;100302.70;;;;-59
2021/09/17 16:43:08;;;;;;;2.58;2.35;;;;;;;21.19;71.36;100299.12;;;;-59
2021/09/17 16:46:08;;;;;;;2.55;2.35;;;;;;;21.19;71.44;100300.27;;;;-64
2021/09/17 16:49:08;;;;;;;2.62;2.42;;;;;;;21.19;71.38;100304.59;;;;-60